This is the latest recevied weather packets stored in our database for station/object IU1OLT-7. If no packets are shown the sender has not sent any weather packets the latest 10 day(s).
| Time | Temp. | Humidity | Pressure | Rain* | Wind** | Luminosity | Snow |
|---|---|---|---|---|---|---|---|
| 1777904602 | 18.89° C | 36% | 1020.1 hPa | - | - | - | - |
| 1777903702 | 19.44° C | 37% | 1020 hPa | - | - | - | - |
| 1777902802 | 22.78° C | 32% | 1020.1 hPa | - | - | - | - |
| 1777901902 | 22.22° C | 33% | 1020.1 hPa | - | - | - | - |
| 1777901002 | 18.33° C | 44% | 1020.4 hPa | - | - | - | - |
| 1777900102 | 18.89° C | 39% | 1020.5 hPa | - | - | - | - |
| 1777899202 | 17.78° C | 40% | 1020.6 hPa | - | - | - | - |
| 1777898302 | 15° C | 42% | 1020.8 hPa | - | - | - | - |
| 1777897397 | 16.11° C | 40% | 1020.7 hPa | - | - | - | - |
| 1777895597 | 17.22° C | 38% | 1020.8 hPa | - | - | - | - |
| 1777894691 | 15.56° C | 39% | 1020.9 hPa | - | - | - | - |
| 1777893791 | 14.44° C | 42% | 1021 hPa | - | - | - | - |
| 1777892891 | 16.11° C | 41% | 1021.1 hPa | - | - | - | - |
| 1777891991 | 15.56° C | 39% | 1021.1 hPa | - | - | - | - |
| 1777891091 | 14.44° C | 42% | 1021.2 hPa | - | - | - | - |
| 1777890191 | 15.56° C | 40% | 1021.2 hPa | - | - | - | - |
| 1777889291 | 14.44° C | 39% | 1021.1 hPa | - | - | - | - |
| 1777888391 | 15° C | 38% | 1021 hPa | - | - | - | - |
| 1777887491 | 18.89° C | 35% | 1021 hPa | - | - | - | - |
| 1777885691 | 20° C | 31% | 1021 hPa | - | - | - | - |
| 1777884791 | 19.44° C | 32% | 1021.1 hPa | - | - | - | - |
| 1777883891 | 17.78° C | 33% | 1020.9 hPa | - | - | - | - |
| 1777882991 | 16.11° C | 36% | 1020.9 hPa | - | - | - | - |
| 1777882091 | 15.56° C | 37% | 1020.9 hPa | - | - | - | - |
| 1777881191 | 16.11° C | 35% | 1020.8 hPa | - | - | - | - |
* Rain since midnight (hover to see other rain measurements)
** Current wind speed in m/s (hover to see current wind gust speed)